sensor_id;sensor_type;location;lat;lon;timestamp;temperature;humidity
21439;DHT22;10880;50.302;18.736;2023-06-22T00:04:45;26.50;57.80
21439;DHT22;10880;50.302;18.736;2023-06-22T00:07:14;25.50;57.00
21439;DHT22;10880;50.302;18.736;2023-06-22T00:17:02;26.40;58.10
21439;DHT22;10880;50.302;18.736;2023-06-22T00:19:33;26.40;58.30
21439;DHT22;10880;50.302;18.736;2023-06-22T00:22:02;26.30;58.70
21439;DHT22;10880;50.302;18.736;2023-06-22T00:36:48;26.20;58.50
21439;DHT22;10880;50.302;18.736;2023-06-22T00:46:35;26.10;58.60
21439;DHT22;10880;50.302;18.736;2023-06-22T00:49:02;26.40;58.80
21439;DHT22;10880;50.302;18.736;2023-06-22T00:54:00;26.10;58.40
21439;DHT22;10880;50.302;18.736;2023-06-22T00:56:26;25.60;58.90
21439;DHT22;10880;50.302;18.736;2023-06-22T01:03:56;26.00;58.80
21439;DHT22;10880;50.302;18.736;2023-06-22T01:06:32;26.00;58.90
21439;DHT22;10880;50.302;18.736;2023-06-22T01:09:21;26.20;59.80
21439;DHT22;10880;50.302;18.736;2023-06-22T01:11:57;26.00;59.00
21439;DHT22;10880;50.302;18.736;2023-06-22T01:14:32;25.60;59.40
21439;DHT22;10880;50.302;18.736;2023-06-22T01:19:48;26.00;58.90
21439;DHT22;10880;50.302;18.736;2023-06-22T01:22:28;26.00;59.70
21439;DHT22;10880;50.302;18.736;2023-06-22T01:25:20;25.90;59.60
21439;DHT22;10880;50.302;18.736;2023-06-22T01:30:43;25.90;59.70
21439;DHT22;10880;50.302;18.736;2023-06-22T01:33:14;25.90;59.70
21439;DHT22;10880;50.302;18.736;2023-06-22T01:35:42;25.90;59.70
21439;DHT22;10880;50.302;18.736;2023-06-22T01:38:09;25.90;59.40
21439;DHT22;10880;50.302;18.736;2023-06-22T01:40:36;25.90;59.40
21439;DHT22;10880;50.302;18.736;2023-06-22T01:43:03;25.90;59.70
21439;DHT22;10880;50.302;18.736;2023-06-22T01:45:30;25.90;59.30
21439;DHT22;10880;50.302;18.736;2023-06-22T01:47:57;25.80;59.40
21439;DHT22;10880;50.302;18.736;2023-06-22T01:50:24;25.80;59.30
21439;DHT22;10880;50.302;18.736;2023-06-22T01:52:50;25.80;59.40
21439;DHT22;10880;50.302;18.736;2023-06-22T01:55:18;25.80;59.40
21439;DHT22;10880;50.302;18.736;2023-06-22T01:57:44;25.80;59.50
21439;DHT22;10880;50.302;18.736;2023-06-22T02:00:18;25.70;59.20
21439;DHT22;10880;50.302;18.736;2023-06-22T02:02:59;25.70;59.80
21439;DHT22;10880;50.302;18.736;2023-06-22T02:05:34;25.70;59.90
21439;DHT22;10880;50.302;18.736;2023-06-22T02:08:10;25.70;60.00
21439;DHT22;10880;50.302;18.736;2023-06-22T02:10:38;25.30;59.70
21439;DHT22;10880;50.302;18.736;2023-06-22T02:13:08;25.70;59.90
21439;DHT22;10880;50.302;18.736;2023-06-22T02:15:35;25.70;59.90
21439;DHT22;10880;50.302;18.736;2023-06-22T02:18:02;25.60;59.80
21439;DHT22;10880;50.302;18.736;2023-06-22T02:20:29;25.60;59.50
21439;DHT22;10880;50.302;18.736;2023-06-22T02:22:56;25.60;59.50
21439;DHT22;10880;50.302;18.736;2023-06-22T02:25:22;25.60;59.10
21439;DHT22;10880;50.302;18.736;2023-06-22T02:27:49;25.50;59.30
21439;DHT22;10880;50.302;18.736;2023-06-22T02:30:17;25.50;59.50
21439;DHT22;10880;50.302;18.736;2023-06-22T02:32:43;25.50;59.10
21439;DHT22;10880;50.302;18.736;2023-06-22T02:35:10;25.40;59.20
21439;DHT22;10880;50.302;18.736;2023-06-22T02:37:36;25.40;59.40
21439;DHT22;10880;50.302;18.736;2023-06-22T02:40:08;25.40;59.50
21439;DHT22;10880;50.302;18.736;2023-06-22T02:42:40;25.30;59.60
21439;DHT22;10880;50.302;18.736;2023-06-22T02:45:07;25.30;59.50
21439;DHT22;10880;50.302;18.736;2023-06-22T02:50:01;25.30;59.60
21439;DHT22;10880;50.302;18.736;2023-06-22T02:52:27;25.30;59.80
21439;DHT22;10880;50.302;18.736;2023-06-22T02:54:53;25.30;60.40
21439;DHT22;10880;50.302;18.736;2023-06-22T02:59:47;25.30;59.90
21439;DHT22;10880;50.302;18.736;2023-06-22T03:02:13;25.20;59.80
21439;DHT22;10880;50.302;18.736;2023-06-22T03:04:40;25.20;59.90
21439;DHT22;10880;50.302;18.736;2023-06-22T03:07:06;25.20;60.00
21439;DHT22;10880;50.302;18.736;2023-06-22T03:09:33;25.20;60.20
21439;DHT22;10880;50.302;18.736;2023-06-22T03:12:00;25.20;60.30
21439;DHT22;10880;50.302;18.736;2023-06-22T03:14:35;25.20;60.40
21439;DHT22;10880;50.302;18.736;2023-06-22T03:17:04;25.20;60.40
21439;DHT22;10880;50.302;18.736;2023-06-22T03:19:32;25.20;60.70
21439;DHT22;10880;50.302;18.736;2023-06-22T03:22:03;25.20;60.60
21439;DHT22;10880;50.302;18.736;2023-06-22T03:24:29;25.20;60.80
21439;DHT22;10880;50.302;18.736;2023-06-22T03:26:56;25.30;60.90
21439;DHT22;10880;50.302;18.736;2023-06-22T03:29:23;25.20;60.80
21439;DHT22;10880;50.302;18.736;2023-06-22T03:31:53;25.20;61.10
21439;DHT22;10880;50.302;18.736;2023-06-22T03:34:20;25.20;61.00
21439;DHT22;10880;50.302;18.736;2023-06-22T03:36:46;25.30;61.00
21439;DHT22;10880;50.302;18.736;2023-06-22T03:39:14;25.30;60.90
21439;DHT22;10880;50.302;18.736;2023-06-22T03:41:41;25.30;61.30
21439;DHT22;10880;50.302;18.736;2023-06-22T03:44:08;25.30;61.00
21439;DHT22;10880;50.302;18.736;2023-06-22T03:46:38;25.30;61.50
21439;DHT22;10880;50.302;18.736;2023-06-22T03:49:04;25.30;61.10
21439;DHT22;10880;50.302;18.736;2023-06-22T03:51:32;25.30;61.50
21439;DHT22;10880;50.302;18.736;2023-06-22T03:53:59;25.30;61.60
21439;DHT22;10880;50.302;18.736;2023-06-22T03:56:25;25.30;61.40
21439;DHT22;10880;50.302;18.736;2023-06-22T03:58:52;25.30;61.50
21439;DHT22;10880;50.302;18.736;2023-06-22T04:01:23;25.40;61.80
21439;DHT22;10880;50.302;18.736;2023-06-22T04:03:50;25.40;62.10
21439;DHT22;10880;50.302;18.736;2023-06-22T04:06:16;25.40;61.60
21439;DHT22;10880;50.302;18.736;2023-06-22T04:08:44;25.50;61.60
21439;DHT22;10880;50.302;18.736;2023-06-22T04:11:14;25.40;62.40
21439;DHT22;10880;50.302;18.736;2023-06-22T04:13:40;25.50;61.70
21439;DHT22;10880;50.302;18.736;2023-06-22T04:16:07;25.60;62.30
21439;DHT22;10880;50.302;18.736;2023-06-22T04:18:33;25.60;61.90
21439;DHT22;10880;50.302;18.736;2023-06-22T04:20:59;25.60;61.50
21439;DHT22;10880;50.302;18.736;2023-06-22T04:23:26;25.70;61.70
21439;DHT22;10880;50.302;18.736;2023-06-22T04:25:55;25.70;61.80
21439;DHT22;10880;50.302;18.736;2023-06-22T04:28:22;25.80;62.30
21439;DHT22;10880;50.302;18.736;2023-06-22T04:30:49;25.80;61.60
21439;DHT22;10880;50.302;18.736;2023-06-22T04:33:17;25.80;61.90
21439;DHT22;10880;50.302;18.736;2023-06-22T04:35:46;25.80;61.70
21439;DHT22;10880;50.302;18.736;2023-06-22T04:38:15;25.90;61.70
21439;DHT22;10880;50.302;18.736;2023-06-22T04:40:41;25.90;61.90
21439;DHT22;10880;50.302;18.736;2023-06-22T04:43:08;25.90;61.50
21439;DHT22;10880;50.302;18.736;2023-06-22T04:45:36;25.90;62.20
21439;DHT22;10880;50.302;18.736;2023-06-22T04:48:13;26.00;62.20
21439;DHT22;10880;50.302;18.736;2023-06-22T04:50:42;26.00;62.40
21439;DHT22;10880;50.302;18.736;2023-06-22T04:53:11;26.10;62.40
21439;DHT22;10880;50.302;18.736;2023-06-22T04:55:39;26.10;62.50
21439;DHT22;10880;50.302;18.736;2023-06-22T04:58:07;26.20;62.60
21439;DHT22;10880;50.302;18.736;2023-06-22T05:00:34;26.20;61.80
21439;DHT22;10880;50.302;18.736;2023-06-22T05:03:02;26.20;62.40
21439;DHT22;10880;50.302;18.736;2023-06-22T05:05:30;26.20;62.50
21439;DHT22;10880;50.302;18.736;2023-06-22T05:07:56;26.30;62.20
21439;DHT22;10880;50.302;18.736;2023-06-22T05:10:26;26.30;62.80
21439;DHT22;10880;50.302;18.736;2023-06-22T05:12:52;26.40;61.90
21439;DHT22;10880;50.302;18.736;2023-06-22T05:15:19;26.40;62.30
21439;DHT22;10880;50.302;18.736;2023-06-22T05:17:46;26.50;63.20
21439;DHT22;10880;50.302;18.736;2023-06-22T05:20:13;26.50;62.70
21439;DHT22;10880;50.302;18.736;2023-06-22T05:22:39;26.50;62.50
21439;DHT22;10880;50.302;18.736;2023-06-22T05:25:09;26.60;62.70
21439;DHT22;10880;50.302;18.736;2023-06-22T05:27:36;26.60;63.20
21439;DHT22;10880;50.302;18.736;2023-06-22T05:30:10;26.70;62.60
21439;DHT22;10880;50.302;18.736;2023-06-22T05:32:38;26.60;62.70
21439;DHT22;10880;50.302;18.736;2023-06-22T05:35:04;26.70;62.40
21439;DHT22;10880;50.302;18.736;2023-06-22T05:37:31;26.70;62.50
21439;DHT22;10880;50.302;18.736;2023-06-22T05:39:57;26.70;62.40
21439;DHT22;10880;50.302;18.736;2023-06-22T05:42:24;26.70;62.10
21439;DHT22;10880;50.302;18.736;2023-06-22T05:44:52;26.80;62.70
21439;DHT22;10880;50.302;18.736;2023-06-22T05:47:19;26.80;62.60
21439;DHT22;10880;50.302;18.736;2023-06-22T05:49:46;26.80;62.10
21439;DHT22;10880;50.302;18.736;2023-06-22T05:52:12;26.80;62.20
21439;DHT22;10880;50.302;18.736;2023-06-22T05:54:38;26.90;62.30
21439;DHT22;10880;50.302;18.736;2023-06-22T05:57:05;26.90;62.10
21439;DHT22;10880;50.302;18.736;2023-06-22T05:59:31;26.90;61.80
21439;DHT22;10880;50.302;18.736;2023-06-22T06:01:57;26.90;62.10
21439;DHT22;10880;50.302;18.736;2023-06-22T06:04:24;26.90;62.70
21439;DHT22;10880;50.302;18.736;2023-06-22T06:06:51;27.00;62.20
21439;DHT22;10880;50.302;18.736;2023-06-22T06:09:17;27.00;62.00
21439;DHT22;10880;50.302;18.736;2023-06-22T06:11:44;27.10;62.60
21439;DHT22;10880;50.302;18.736;2023-06-22T06:14:10;27.10;62.90
21439;DHT22;10880;50.302;18.736;2023-06-22T06:16:37;27.20;62.90
21439;DHT22;10880;50.302;18.736;2023-06-22T06:19:03;27.20;62.80
21439;DHT22;10880;50.302;18.736;2023-06-22T06:21:30;27.30;63.00
21439;DHT22;10880;50.302;18.736;2023-06-22T06:23:57;27.40;63.00
21439;DHT22;10880;50.302;18.736;2023-06-22T06:26:24;27.40;63.40
21439;DHT22;10880;50.302;18.736;2023-06-22T06:29:00;27.50;63.70
21439;DHT22;10880;50.302;18.736;2023-06-22T06:31:26;27.60;63.30
21439;DHT22;10880;50.302;18.736;2023-06-22T06:33:55;27.70;63.70
21439;DHT22;10880;50.302;18.736;2023-06-22T06:36:22;27.80;63.70
21439;DHT22;10880;50.302;18.736;2023-06-22T06:38:48;27.90;62.80
21439;DHT22;10880;50.302;18.736;2023-06-22T06:41:16;28.00;62.80
21439;DHT22;10880;50.302;18.736;2023-06-22T06:43:42;28.10;63.30
21439;DHT22;10880;50.302;18.736;2023-06-22T06:46:09;28.70;64.30
21439;DHT22;10880;50.302;18.736;2023-06-22T06:48:49;28.30;63.10
21439;DHT22;10880;50.302;18.736;2023-06-22T06:52:20;28.50;61.90
21439;DHT22;10880;50.302;18.736;2023-06-22T06:55:25;28.60;61.70
21439;DHT22;10880;50.302;18.736;2023-06-22T06:58:36;28.70;61.30
21439;DHT22;10880;50.302;18.736;2023-06-22T07:03:50;28.80;61.20
21439;DHT22;10880;50.302;18.736;2023-06-22T07:06:17;28.80;61.30
21439;DHT22;10880;50.302;18.736;2023-06-22T07:08:46;28.90;61.10
21439;DHT22;10880;50.302;18.736;2023-06-22T07:11:13;29.00;60.80
21439;DHT22;10880;50.302;18.736;2023-06-22T07:13:39;29.00;60.70
21439;DHT22;10880;50.302;18.736;2023-06-22T07:16:06;29.10;60.50
21439;DHT22;10880;50.302;18.736;2023-06-22T07:18:32;29.10;60.70
21439;DHT22;10880;50.302;18.736;2023-06-22T07:20:59;29.10;60.00
21439;DHT22;10880;50.302;18.736;2023-06-22T07:23:40;29.20;60.30
21439;DHT22;10880;50.302;18.736;2023-06-22T07:26:07;29.20;60.00
21439;DHT22;10880;50.302;18.736;2023-06-22T07:28:34;29.30;60.10
21439;DHT22;10880;50.302;18.736;2023-06-22T07:33:31;29.40;59.60
21439;DHT22;10880;50.302;18.736;2023-06-22T07:36:03;29.40;59.30
21439;DHT22;10880;50.302;18.736;2023-06-22T07:38:40;29.50;60.00
21439;DHT22;10880;50.302;18.736;2023-06-22T07:41:06;29.50;60.00
21439;DHT22;10880;50.302;18.736;2023-06-22T07:46:03;29.60;59.00
21439;DHT22;10880;50.302;18.736;2023-06-22T07:48:30;29.70;59.30
21439;DHT22;10880;50.302;18.736;2023-06-22T07:50:56;29.70;58.60
21439;DHT22;10880;50.302;18.736;2023-06-22T07:53:23;29.80;58.70
21439;DHT22;10880;50.302;18.736;2023-06-22T07:55:50;29.80;58.60
21439;DHT22;10880;50.302;18.736;2023-06-22T07:58:16;29.90;58.70
21439;DHT22;10880;50.302;18.736;2023-06-22T08:00:45;30.00;58.40
21439;DHT22;10880;50.302;18.736;2023-06-22T08:03:11;30.00;58.30
21439;DHT22;10880;50.302;18.736;2023-06-22T08:08:05;27.80;56.30
21439;DHT22;10880;50.302;18.736;2023-06-22T08:10:36;30.20;57.90
21439;DHT22;10880;50.302;18.736;2023-06-22T08:13:07;30.30;58.00
21439;DHT22;10880;50.302;18.736;2023-06-22T08:15:34;30.60;58.70
21439;DHT22;10880;50.302;18.736;2023-06-22T08:18:06;31.10;57.80
21439;DHT22;10880;50.302;18.736;2023-06-22T08:25:34;30.50;57.10
21439;DHT22;10880;50.302;18.736;2023-06-22T08:28:04;30.60;56.90
21439;DHT22;10880;50.302;18.736;2023-06-22T08:30:48;30.60;56.80
21439;DHT22;10880;50.302;18.736;2023-06-22T08:35:42;30.70;56.90
21439;DHT22;10880;50.302;18.736;2023-06-22T08:38:13;30.80;56.90
21439;DHT22;10880;50.302;18.736;2023-06-22T08:40:41;30.80;57.30
21439;DHT22;10880;50.302;18.736;2023-06-22T08:43:08;30.90;56.90
21439;DHT22;10880;50.302;18.736;2023-06-22T08:45:34;31.00;56.60
21439;DHT22;10880;50.302;18.736;2023-06-22T08:48:00;31.10;56.30
21439;DHT22;10880;50.302;18.736;2023-06-22T08:50:27;31.00;56.50
21439;DHT22;10880;50.302;18.736;2023-06-22T08:52:53;31.10;56.40
21439;DHT22;10880;50.302;18.736;2023-06-22T08:55:19;31.20;56.90
21439;DHT22;10880;50.302;18.736;2023-06-22T08:57:46;31.30;56.00
21439;DHT22;10880;50.302;18.736;2023-06-22T09:00:13;31.30;55.80
21439;DHT22;10880;50.302;18.736;2023-06-22T09:02:46;31.40;56.10
21439;DHT22;10880;50.302;18.736;2023-06-22T09:05:14;31.40;55.80
21439;DHT22;10880;50.302;18.736;2023-06-22T09:07:40;31.40;55.70
21439;DHT22;10880;50.302;18.736;2023-06-22T09:10:08;31.50;55.60
21439;DHT22;10880;50.302;18.736;2023-06-22T09:12:34;31.50;55.40
21439;DHT22;10880;50.302;18.736;2023-06-22T09:15:03;31.50;55.50
21439;DHT22;10880;50.302;18.736;2023-06-22T09:17:53;31.60;55.80
21439;DHT22;10880;50.302;18.736;2023-06-22T09:20:30;31.70;55.00
21439;DHT22;10880;50.302;18.736;2023-06-22T09:23:34;31.70;54.90
21439;DHT22;10880;50.302;18.736;2023-06-22T09:26:12;31.80;54.80
21439;DHT22;10880;50.302;18.736;2023-06-22T09:28:46;31.80;55.20
21439;DHT22;10880;50.302;18.736;2023-06-22T09:31:13;31.80;54.80
21439;DHT22;10880;50.302;18.736;2023-06-22T09:33:40;31.90;54.40
21439;DHT22;10880;50.302;18.736;2023-06-22T09:36:07;31.90;54.70
21439;DHT22;10880;50.302;18.736;2023-06-22T09:38:37;32.00;54.50
21439;DHT22;10880;50.302;18.736;2023-06-22T09:41:04;32.00;54.50
21439;DHT22;10880;50.302;18.736;2023-06-22T09:43:32;32.10;54.40
21439;DHT22;10880;50.302;18.736;2023-06-22T09:45:58;32.10;54.40
21439;DHT22;10880;50.302;18.736;2023-06-22T09:48:25;32.20;54.40
21439;DHT22;10880;50.302;18.736;2023-06-22T09:50:51;32.20;53.70
21439;DHT22;10880;50.302;18.736;2023-06-22T09:53:18;32.30;53.50
21439;DHT22;10880;50.302;18.736;2023-06-22T09:55:48;32.30;53.40
21439;DHT22;10880;50.302;18.736;2023-06-22T10:00:43;32.30;53.00
21439;DHT22;10880;50.302;18.736;2023-06-22T10:03:10;32.40;52.90
21439;DHT22;10880;50.302;18.736;2023-06-22T10:08:04;32.40;52.70
21439;DHT22;10880;50.302;18.736;2023-06-22T10:13:06;32.50;52.60
21439;DHT22;10880;50.302;18.736;2023-06-22T10:15:34;32.90;53.30
21439;DHT22;10880;50.302;18.736;2023-06-22T10:18:00;32.50;52.60
21439;DHT22;10880;50.302;18.736;2023-06-22T10:20:26;32.50;52.40
21439;DHT22;10880;50.302;18.736;2023-06-22T10:22:54;32.60;52.40
21439;DHT22;10880;50.302;18.736;2023-06-22T10:25:21;32.60;52.10
21439;DHT22;10880;50.302;18.736;2023-06-22T10:27:48;32.60;52.00
21439;DHT22;10880;50.302;18.736;2023-06-22T10:30:14;32.60;51.60
21439;DHT22;10880;50.302;18.736;2023-06-22T10:32:42;32.60;51.70
21439;DHT22;10880;50.302;18.736;2023-06-22T10:35:10;32.70;52.20
21439;DHT22;10880;50.302;18.736;2023-06-22T10:37:46;32.70;51.90
21439;DHT22;10880;50.302;18.736;2023-06-22T10:40:13;32.70;51.90
21439;DHT22;10880;50.302;18.736;2023-06-22T10:42:41;32.70;52.00
21439;DHT22;10880;50.302;18.736;2023-06-22T10:45:08;32.80;51.70
21439;DHT22;10880;50.302;18.736;2023-06-22T10:47:36;32.90;51.80
21439;DHT22;10880;50.302;18.736;2023-06-22T10:50:03;32.90;51.80
21439;DHT22;10880;50.302;18.736;2023-06-22T10:52:30;32.90;51.60
21439;DHT22;10880;50.302;18.736;2023-06-22T10:54:56;33.00;51.00
21439;DHT22;10880;50.302;18.736;2023-06-22T10:57:22;33.00;50.90
21439;DHT22;10880;50.302;18.736;2023-06-22T10:59:49;33.00;51.20
21439;DHT22;10880;50.302;18.736;2023-06-22T11:02:15;33.10;50.80
21439;DHT22;10880;50.302;18.736;2023-06-22T11:04:42;33.10;50.40
21439;DHT22;10880;50.302;18.736;2023-06-22T11:07:09;33.10;50.30
21439;DHT22;10880;50.302;18.736;2023-06-22T11:09:36;33.10;50.20
21439;DHT22;10880;50.302;18.736;2023-06-22T11:12:02;33.10;49.90
21439;DHT22;10880;50.302;18.736;2023-06-22T11:14:29;33.10;50.00
21439;DHT22;10880;50.302;18.736;2023-06-22T11:16:55;33.10;49.70
21439;DHT22;10880;50.302;18.736;2023-06-22T11:19:22;33.10;49.90
21439;DHT22;10880;50.302;18.736;2023-06-22T11:21:48;33.10;49.40
21439;DHT22;10880;50.302;18.736;2023-06-22T11:24:14;33.10;49.40
21439;DHT22;10880;50.302;18.736;2023-06-22T11:26:42;33.10;49.60
21439;DHT22;10880;50.302;18.736;2023-06-22T11:29:08;33.10;49.20
21439;DHT22;10880;50.302;18.736;2023-06-22T11:31:35;33.10;49.10
21439;DHT22;10880;50.302;18.736;2023-06-22T11:34:02;33.10;48.90
21439;DHT22;10880;50.302;18.736;2023-06-22T11:36:29;33.10;48.90
21439;DHT22;10880;50.302;18.736;2023-06-22T11:38:59;33.10;49.50
21439;DHT22;10880;50.302;18.736;2023-06-22T11:41:25;33.10;49.00
21439;DHT22;10880;50.302;18.736;2023-06-22T11:43:52;33.10;49.40
21439;DHT22;10880;50.302;18.736;2023-06-22T11:46:18;33.20;48.80
21439;DHT22;10880;50.302;18.736;2023-06-22T11:48:45;32.90;48.70
21439;DHT22;10880;50.302;18.736;2023-06-22T11:51:13;33.10;49.30
21439;DHT22;10880;50.302;18.736;2023-06-22T11:53:40;33.50;49.50
21439;DHT22;10880;50.302;18.736;2023-06-22T11:56:09;33.20;48.60
21439;DHT22;10880;50.302;18.736;2023-06-22T11:58:40;33.20;48.90
21439;DHT22;10880;50.302;18.736;2023-06-22T12:01:10;33.20;49.30
21439;DHT22;10880;50.302;18.736;2023-06-22T12:03:36;32.90;49.00
21439;DHT22;10880;50.302;18.736;2023-06-22T12:06:03;33.20;48.60
21439;DHT22;10880;50.302;18.736;2023-06-22T12:08:29;33.20;48.00
21439;DHT22;10880;50.302;18.736;2023-06-22T12:10:58;33.10;48.30
21439;DHT22;10880;50.302;18.736;2023-06-22T12:13:28;33.10;48.10
21439;DHT22;10880;50.302;18.736;2023-06-22T12:15:55;33.10;47.40
21439;DHT22;10880;50.302;18.736;2023-06-22T12:18:26;33.10;47.50
21439;DHT22;10880;50.302;18.736;2023-06-22T12:23:27;33.10;47.50
21439;DHT22;10880;50.302;18.736;2023-06-22T12:25:54;33.10;47.70
21439;DHT22;10880;50.302;18.736;2023-06-22T12:28:20;33.10;47.70
21439;DHT22;10880;50.302;18.736;2023-06-22T12:30:47;33.10;47.20
21439;DHT22;10880;50.302;18.736;2023-06-22T12:33:13;33.10;47.10
21439;DHT22;10880;50.302;18.736;2023-06-22T12:35:40;33.10;47.20
21439;DHT22;10880;50.302;18.736;2023-06-22T12:38:06;33.10;47.40
21439;DHT22;10880;50.302;18.736;2023-06-22T12:40:34;33.10;47.50
21439;DHT22;10880;50.302;18.736;2023-06-22T12:43:00;33.10;47.70
21439;DHT22;10880;50.302;18.736;2023-06-22T12:45:28;33.10;47.20
21439;DHT22;10880;50.302;18.736;2023-06-22T12:50:25;33.10;47.10
21439;DHT22;10880;50.302;18.736;2023-06-22T12:52:56;33.10;47.30
21439;DHT22;10880;50.302;18.736;2023-06-22T12:55:22;33.20;47.60
21439;DHT22;10880;50.302;18.736;2023-06-22T12:57:55;33.10;46.70
21439;DHT22;10880;50.302;18.736;2023-06-22T13:00:27;33.10;47.50
21439;DHT22;10880;50.302;18.736;2023-06-22T13:02:53;33.10;46.90
21439;DHT22;10880;50.302;18.736;2023-06-22T13:05:20;33.10;46.80
21439;DHT22;10880;50.302;18.736;2023-06-22T13:07:47;33.10;46.90
21439;DHT22;10880;50.302;18.736;2023-06-22T13:10:17;33.10;46.80
21439;DHT22;10880;50.302;18.736;2023-06-22T13:12:49;30.90;45.90
21439;DHT22;10880;50.302;18.736;2023-06-22T13:17:44;33.10;46.50
21439;DHT22;10880;50.302;18.736;2023-06-22T13:20:11;33.30;47.40
21439;DHT22;10880;50.302;18.736;2023-06-22T13:22:38;33.10;46.60
21439;DHT22;10880;50.302;18.736;2023-06-22T13:27:41;33.10;46.30
21439;DHT22;10880;50.302;18.736;2023-06-22T13:30:10;33.20;46.30
21439;DHT22;10880;50.302;18.736;2023-06-22T13:32:37;33.20;46.30
21439;DHT22;10880;50.302;18.736;2023-06-22T13:35:10;33.10;46.70
21439;DHT22;10880;50.302;18.736;2023-06-22T13:37:37;33.20;45.90
21439;DHT22;10880;50.302;18.736;2023-06-22T13:40:07;33.10;46.30
21439;DHT22;10880;50.302;18.736;2023-06-22T13:42:34;33.10;46.10
21439;DHT22;10880;50.302;18.736;2023-06-22T13:45:00;33.10;46.00
21439;DHT22;10880;50.302;18.736;2023-06-22T13:47:27;33.10;46.00
21439;DHT22;10880;50.302;18.736;2023-06-22T13:54:52;33.10;45.70
21439;DHT22;10880;50.302;18.736;2023-06-22T13:57:19;33.10;45.50
21439;DHT22;10880;50.302;18.736;2023-06-22T13:59:45;33.10;45.50
21439;DHT22;10880;50.302;18.736;2023-06-22T14:04:38;33.10;45.60
21439;DHT22;10880;50.302;18.736;2023-06-22T14:07:05;33.10;45.40
21439;DHT22;10880;50.302;18.736;2023-06-22T14:12:01;33.10;45.40
21439;DHT22;10880;50.302;18.736;2023-06-22T14:14:28;33.10;45.80
21439;DHT22;10880;50.302;18.736;2023-06-22T14:16:55;33.10;45.50
21439;DHT22;10880;50.302;18.736;2023-06-22T14:19:21;33.10;45.00
21439;DHT22;10880;50.302;18.736;2023-06-22T14:21:48;33.10;45.30
21439;DHT22;10880;50.302;18.736;2023-06-22T14:26:41;33.10;45.00
21439;DHT22;10880;50.302;18.736;2023-06-22T14:29:07;32.40;44.70
21439;DHT22;10880;50.302;18.736;2023-06-22T14:31:34;33.10;45.20
21439;DHT22;10880;50.302;18.736;2023-06-22T14:34:01;33.10;45.20
21439;DHT22;10880;50.302;18.736;2023-06-22T14:36:29;33.10;45.30
21439;DHT22;10880;50.302;18.736;2023-06-22T14:38:55;33.10;45.20
21439;DHT22;10880;50.302;18.736;2023-06-22T14:41:22;33.10;44.80
21439;DHT22;10880;50.302;18.736;2023-06-22T14:43:49;33.10;44.70
21439;DHT22;10880;50.302;18.736;2023-06-22T14:46:18;33.10;45.50
21439;DHT22;10880;50.302;18.736;2023-06-22T14:48:45;33.10;45.00
21439;DHT22;10880;50.302;18.736;2023-06-22T14:51:11;33.00;44.60
21439;DHT22;10880;50.302;18.736;2023-06-22T14:53:38;33.00;44.80
21439;DHT22;10880;50.302;18.736;2023-06-22T14:56:05;33.00;44.90
21439;DHT22;10880;50.302;18.736;2023-06-22T14:58:32;33.00;45.20
21439;DHT22;10880;50.302;18.736;2023-06-22T15:01:05;33.10;44.30
21439;DHT22;10880;50.302;18.736;2023-06-22T15:03:34;33.10;44.80
21439;DHT22;10880;50.302;18.736;2023-06-22T15:06:03;33.00;44.70
21439;DHT22;10880;50.302;18.736;2023-06-22T15:08:29;33.00;44.90
21439;DHT22;10880;50.302;18.736;2023-06-22T15:10:59;33.00;44.50
21439;DHT22;10880;50.302;18.736;2023-06-22T15:13:32;33.00;44.70
21439;DHT22;10880;50.302;18.736;2023-06-22T15:16:03;33.00;44.70
21439;DHT22;10880;50.302;18.736;2023-06-22T15:18:30;33.00;44.10
21439;DHT22;10880;50.302;18.736;2023-06-22T15:21:05;33.00;44.40
21439;DHT22;10880;50.302;18.736;2023-06-22T15:23:34;33.00;44.40
21439;DHT22;10880;50.302;18.736;2023-06-22T15:26:02;33.00;44.30
21439;DHT22;10880;50.302;18.736;2023-06-22T15:28:32;33.00;44.70
21439;DHT22;10880;50.302;18.736;2023-06-22T15:30:59;33.00;44.50
21439;DHT22;10880;50.302;18.736;2023-06-22T15:33:25;33.00;44.00
21439;DHT22;10880;50.302;18.736;2023-06-22T15:35:52;32.90;44.00
21439;DHT22;10880;50.302;18.736;2023-06-22T15:38:22;32.90;44.40
21439;DHT22;10880;50.302;18.736;2023-06-22T15:43:15;32.90;43.90
21439;DHT22;10880;50.302;18.736;2023-06-22T15:45:41;32.90;44.10
21439;DHT22;10880;50.302;18.736;2023-06-22T15:48:08;32.90;44.20
21439;DHT22;10880;50.302;18.736;2023-06-22T15:50:34;32.90;44.10
21439;DHT22;10880;50.302;18.736;2023-06-22T15:53:01;32.90;44.00
21439;DHT22;10880;50.302;18.736;2023-06-22T15:55:27;32.90;44.20
21439;DHT22;10880;50.302;18.736;2023-06-22T15:57:55;32.90;43.90
21439;DHT22;10880;50.302;18.736;2023-06-22T16:00:21;32.90;43.90
21439;DHT22;10880;50.302;18.736;2023-06-22T16:02:48;32.90;43.80
21439;DHT22;10880;50.302;18.736;2023-06-22T16:05:14;32.90;43.60
21439;DHT22;10880;50.302;18.736;2023-06-22T16:07:40;32.90;43.60
21439;DHT22;10880;50.302;18.736;2023-06-22T16:10:07;32.80;43.40
21439;DHT22;10880;50.302;18.736;2023-06-22T16:12:35;32.80;44.00
21439;DHT22;10880;50.302;18.736;2023-06-22T16:15:05;32.80;44.10
21439;DHT22;10880;50.302;18.736;2023-06-22T16:17:32;32.80;43.70
21439;DHT22;10880;50.302;18.736;2023-06-22T16:20:08;32.80;43.80
21439;DHT22;10880;50.302;18.736;2023-06-22T16:22:36;32.70;43.80
21439;DHT22;10880;50.302;18.736;2023-06-22T16:25:03;32.70;43.40
21439;DHT22;10880;50.302;18.736;2023-06-22T16:27:30;32.70;43.50
21439;DHT22;10880;50.302;18.736;2023-06-22T16:29:58;32.70;43.70
21439;DHT22;10880;50.302;18.736;2023-06-22T16:32:25;32.70;43.80
21439;DHT22;10880;50.302;18.736;2023-06-22T16:34:51;32.70;43.80
21439;DHT22;10880;50.302;18.736;2023-06-22T16:37:18;32.70;43.60
21439;DHT22;10880;50.302;18.736;2023-06-22T16:39:44;32.70;43.70
21439;DHT22;10880;50.302;18.736;2023-06-22T16:42:11;32.70;43.50
21439;DHT22;10880;50.302;18.736;2023-06-22T16:44:37;32.70;43.10
21439;DHT22;10880;50.302;18.736;2023-06-22T16:47:04;32.70;43.30
21439;DHT22;10880;50.302;18.736;2023-06-22T16:49:31;32.60;43.20
21439;DHT22;10880;50.302;18.736;2023-06-22T16:51:58;32.60;43.40
21439;DHT22;10880;50.302;18.736;2023-06-22T16:54:25;32.60;43.30
21439;DHT22;10880;50.302;18.736;2023-06-22T16:56:53;32.60;42.90
21439;DHT22;10880;50.302;18.736;2023-06-22T16:59:20;32.60;43.20
21439;DHT22;10880;50.302;18.736;2023-06-22T17:01:53;32.60;43.10